Time,TemperatureF,DewpointF,PressureIn,WindDirection,WindDirectionDegrees,WindSpeedMPH,WindSpeedGustMPH,Humidity,HourlyPrecipIn,Conditions,Clouds,dailyrainin,SoftwareType,DateUTC
2013-05-21 00:02:00,61.0,52.0,29.83,NW,320,7.0,-999.0,72,-99.99,,,-99.99,,2013-05-21 05:02:00,
2013-05-21 00:12:00,63.0,50.0,29.84,WNW,300,7.0,-999.0,63,-99.99,,,-99.99,,2013-05-21 05:12:00,
2013-05-21 00:21:00,63.0,50.0,29.85,NW,310,7.0,-999.0,63,-99.99,,,-99.99,,2013-05-21 05:21:00,
2013-05-21 00:32:00,61.0,50.0,29.85,WNW,300,7.0,-999.0,67,-99.99,,,-99.99,,2013-05-21 05:32:00,
2013-05-21 00:42:00,61.0,50.0,29.85,WNW,300,7.0,-999.0,67,-99.99,,,-99.99,,2013-05-21 05:42:00,
2013-05-21 00:51:00,57.0,50.0,29.85,WNW,290,6.0,-999.0,76,-99.99,,,-99.99,,2013-05-21 05:51:00,
2013-05-21 01:02:00,57.0,50.0,29.85,WNW,290,6.0,-999.0,76,-99.99,,,-99.99,,2013-05-21 06:02:00,
2013-05-21 01:12:00,57.0,50.0,29.85,WNW,290,7.0,-999.0,76,-99.99,,,-99.99,,2013-05-21 06:12:00,
2013-05-21 01:21:00,55.0,50.0,29.86,West,270,5.0,-999.0,81,-99.99,,,-99.99,,2013-05-21 06:21:00,
2013-05-21 01:32:00,55.0,50.0,29.86,West,280,6.0,-999.0,81,-99.99,,,-99.99,,2013-05-21 06:32:00,
2013-05-21 01:41:00,55.0,48.0,29.86,West,280,5.0,-999.0,76,-99.99,,,-99.99,,2013-05-21 06:41:00,
2013-05-21 01:51:00,55.0,48.0,29.86,West,280,6.0,-999.0,76,-99.99,,,-99.99,,2013-05-21 06:51:00,
2013-05-21 02:01:00,55.0,48.0,29.86,West,280,6.0,-999.0,76,-99.99,,,-99.99,,2013-05-21 07:01:00,
2013-05-21 02:11:00,55.0,48.0,29.85,WNW,290,5.0,-999.0,76,-99.99,,,-99.99,,2013-05-21 07:11:00,
2013-05-21 02:21:00,55.0,48.0,29.85,West,280,5.0,-999.0,76,-99.99,,,-99.99,,2013-05-21 07:21:00,
2013-05-21 02:31:00,54.0,48.0,29.85,West,280,6.0,-999.0,81,-99.99,,,-99.99,,2013-05-21 07:31:00,
2013-05-21 02:41:00,54.0,48.0,29.85,WNW,300,7.0,-999.0,81,-99.99,,,-99.99,,2013-05-21 07:41:00,
2013-05-21 02:51:00,54.0,48.0,29.85,West,270,6.0,-999.0,81,-99.99,,,-99.99,,2013-05-21 07:51:00,
2013-05-21 03:02:00,54.0,48.0,29.85,West,270,6.0,-999.0,81,-99.99,,,-99.99,,2013-05-21 08:02:00,
2013-05-21 03:11:00,54.0,48.0,29.84,West,270,6.0,-999.0,81,-99.99,,,-99.99,,2013-05-21 08:11:00,
2013-05-21 03:21:00,54.0,48.0,29.82,West,280,8.0,-999.0,81,-99.99,,,-99.99,,2013-05-21 08:21:00,
2013-05-21 03:31:00,54.0,48.0,29.82,West,270,9.0,-999.0,81,-99.99,,,-99.99,,2013-05-21 08:31:00,
2013-05-21 03:41:00,54.0,48.0,29.82,West,280,9.0,-999.0,81,-99.99,,,-99.99,,2013-05-21 08:41:00,
2013-05-21 03:52:00,54.0,48.0,29.82,West,270,8.0,-999.0,81,-99.99,,,-99.99,,2013-05-21 08:52:00,
2013-05-21 04:01:00,54.0,48.0,29.82,West,270,8.0,-999.0,81,-99.99,,,-99.99,,2013-05-21 09:01:00,
2013-05-21 04:11:00,54.0,48.0,29.83,West,270,5.0,-999.0,81,-99.99,,,-99.99,,2013-05-21 09:11:00,
2013-05-21 04:21:00,52.0,48.0,29.83,West,280,6.0,-999.0,87,-99.99,,,-99.99,,2013-05-21 09:21:00,
2013-05-21 04:32:00,52.0,48.0,29.84,West,270,6.0,-999.0,87,-99.99,,,-99.99,,2013-05-21 09:32:00,
2013-05-21 04:42:00,52.0,48.0,29.84,West,280,7.0,-999.0,87,-99.99,,,-99.99,,2013-05-21 09:42:00,
2013-05-21 04:52:00,52.0,48.0,29.84,West,280,8.0,-999.0,87,-99.99,,,-99.99,,2013-05-21 09:52:00,
2013-05-21 05:02:00,52.0,48.0,29.84,West,280,8.0,-999.0,87,-99.99,,,-99.99,,2013-05-21 10:02:00,
2013-05-21 05:12:00,52.0,48.0,29.85,WNW,290,8.0,-999.0,87,-99.99,,,-99.99,,2013-05-21 10:12:00,
2013-05-21 05:22:00,52.0,48.0,29.85,West,280,8.0,-999.0,87,-99.99,,,-99.99,,2013-05-21 10:22:00,
2013-05-21 05:32:00,52.0,48.0,29.84,WNW,290,8.0,-999.0,87,-99.99,,,-99.99,,2013-05-21 10:32:00,
2013-05-21 05:42:00,52.0,48.0,29.83,WNW,290,9.0,-999.0,87,-99.99,,,-99.99,,2013-05-21 10:42:00,
2013-05-21 05:52:00,54.0,48.0,29.85,West,260,7.0,-999.0,81,-99.99,,,-99.99,,2013-05-21 10:52:00,
2013-05-21 06:02:00,54.0,48.0,29.85,West,260,7.0,-999.0,81,-99.99,,,-99.99,,2013-05-21 11:02:00,
2013-05-21 06:11:00,52.0,48.0,29.84,West,280,8.0,-999.0,87,-99.99,,,-99.99,,2013-05-21 11:11:00,
2013-05-21 06:21:00,52.0,48.0,29.82,NW,310,6.0,-999.0,87,-99.99,,,-99.99,,2013-05-21 11:21:00,
2013-05-21 06:32:00,54.0,48.0,29.84,WNW,300,7.0,-999.0,81,-99.99,,,-99.99,,2013-05-21 11:32:00,
2013-05-21 06:41:00,54.0,48.0,29.83,WNW,300,9.0,-999.0,81,-99.99,,,-99.99,,2013-05-21 11:41:00,
2013-05-21 06:51:00,54.0,48.0,29.83,WNW,300,8.0,-999.0,81,-99.99,,,-99.99,,2013-05-21 11:51:00,
2013-05-21 07:01:00,54.0,48.0,29.83,WNW,300,8.0,-999.0,81,-99.99,,,-99.99,,2013-05-21 12:01:00,
2013-05-21 07:11:00,54.0,48.0,29.85,WNW,300,6.0,-999.0,81,-99.99,,,-99.99,,2013-05-21 12:11:00,
2013-05-21 07:21:00,54.0,48.0,29.86,WNW,300,6.0,-999.0,81,-99.99,,,-99.99,,2013-05-21 12:21:00,
2013-05-21 07:31:00,55.0,48.0,29.86,WNW,290,9.0,-999.0,76,-99.99,,,-99.99,,2013-05-21 12:31:00,
2013-05-21 07:41:00,55.0,48.0,29.87,West,280,9.0,-999.0,76,-99.99,,,-99.99,,2013-05-21 12:41:00,
2013-05-21 07:51:00,57.0,48.0,29.87,WNW,300,7.0,-999.0,71,-99.99,,,-99.99,,2013-05-21 12:51:00,
2013-05-21 08:01:00,57.0,48.0,29.87,WNW,300,7.0,-999.0,71,-99.99,,,-99.99,,2013-05-21 13:01:00,
2013-05-21 08:12:00,57.0,48.0,29.88,WNW,290,7.0,-999.0,71,-99.99,,,-99.99,,2013-05-21 13:12:00,
2013-05-21 08:22:00,59.0,50.0,29.87,WNW,290,9.0,-999.0,72,-99.99,,,-99.99,,2013-05-21 13:22:00,
2013-05-21 08:31:00,61.0,48.0,29.87,NW,310,7.0,-999.0,63,-99.99,,,-99.99,,2013-05-21 13:31:00,
2013-05-21 08:41:00,61.0,48.0,29.86,WNW,300,9.0,-999.0,63,-99.99,,,-99.99,,2013-05-21 13:41:00,
2013-05-21 08:52:00,61.0,48.0,29.87,NW,310,13.0,20.0,63,-99.99,,,-99.99,,2013-05-21 13:52:00,
2013-05-21 09:01:00,61.0,48.0,29.87,NW,310,13.0,20.0,63,-99.99,,,-99.99,,2013-05-21 14:01:00,
2013-05-21 09:11:00,61.0,50.0,29.86,NW,320,12.0,17.0,67,-99.99,,,-99.99,,2013-05-21 14:11:00,
2013-05-21 09:21:00,63.0,50.0,29.85,NW,320,13.0,20.0,63,-99.99,,,-99.99,,2013-05-21 14:21:00,
2013-05-21 09:31:00,63.0,52.0,29.85,NW,310,12.0,16.0,67,-99.99,,,-99.99,,2013-05-21 14:31:00,
2013-05-21 09:41:00,63.0,52.0,29.84,NW,310,12.0,17.0,67,-99.99,,,-99.99,,2013-05-21 14:41:00,
2013-05-21 09:51:00,64.0,50.0,29.85,NW,320,14.0,-999.0,59,-99.99,,,-99.99,,2013-05-21 14:51:00,
2013-05-21 10:01:00,64.0,50.0,29.85,NW,320,14.0,-999.0,59,-99.99,,,-99.99,,2013-05-21 15:01:00,
2013-05-21 10:11:00,64.0,52.0,29.85,WNW,300,13.0,-999.0,63,-99.99,,,-99.99,,2013-05-21 15:11:00,
2013-05-21 10:21:00,64.0,52.0,29.85,NW,310,10.0,-999.0,63,-99.99,,,-99.99,,2013-05-21 15:21:00,
2013-05-21 10:33:00,64.0,52.0,29.84,NW,320,14.0,20.0,63,-99.99,,,-99.99,,2013-05-21 15:33:00,
2013-05-21 10:42:00,64.0,50.0,29.85,NNW,330,12.0,-999.0,59,-99.99,,,-99.99,,2013-05-21 15:42:00,
2013-05-21 10:52:00,66.0,50.0,29.85,NNW,330,9.0,-999.0,55,-99.99,,,-99.99,,2013-05-21 15:52:00,
2013-05-21 11:02:00,66.0,50.0,29.85,NNW,330,9.0,-999.0,55,-99.99,,,-99.99,,2013-05-21 16:02:00,
2013-05-21 11:12:00,66.0,50.0,29.85,NNW,340,9.0,18.0,55,-99.99,,,-99.99,,2013-05-21 16:12:00,
2013-05-21 11:23:00,66.0,50.0,29.85,North,350,10.0,16.0,55,-99.99,,,-99.99,,2013-05-21 16:23:00,
2013-05-21 11:32:00,68.0,52.0,29.84,NNW,340,9.0,-999.0,56,-99.99,,,-99.99,,2013-05-21 16:32:00,
2013-05-21 11:42:00,70.0,52.0,29.85,North,350,12.0,16.0,52,-99.99,,,-99.99,,2013-05-21 16:42:00,
2013-05-21 11:52:00,70.0,52.0,29.86,NNW,330,9.0,-999.0,52,-99.99,,,-99.99,,2013-05-21 16:52:00,
2013-05-21 12:02:00,70.0,52.0,29.86,NNW,330,9.0,-999.0,52,-99.99,,,-99.99,,2013-05-21 17:02:00,
2013-05-21 12:12:00,68.0,52.0,29.85,NW,320,10.0,-999.0,56,-99.99,,,-99.99,,2013-05-21 17:12:00,
2013-05-21 12:23:00,68.0,50.0,29.85,NW,310,9.0,-999.0,52,-99.99,,,-99.99,,2013-05-21 17:23:00,
2013-05-21 12:32:00,70.0,48.0,29.86,NNW,330,7.0,23.0,46,-99.99,,,-99.99,,2013-05-21 17:32:00,
2013-05-21 12:43:00,70.0,48.0,29.87,NNW,330,10.0,16.0,46,-99.99,,,-99.99,,2013-05-21 17:43:00,
2013-05-21 12:52:00,70.0,48.0,29.86,NNW,330,8.0,-999.0,46,-99.99,,,-99.99,,2013-05-21 17:52:00,
2013-05-21 13:01:00,70.0,48.0,29.86,NNW,330,8.0,-999.0,46,-99.99,,,-99.99,,2013-05-21 18:01:00,
2013-05-21 13:12:00,72.0,50.0,29.88,WNW,290,9.0,-999.0,46,-99.99,,,-99.99,,2013-05-21 18:12:00,
2013-05-21 13:22:00,70.0,48.0,29.88,NW,320,5.0,17.0,46,-99.99,,,-99.99,,2013-05-21 18:22:00,
2013-05-21 13:32:00,70.0,50.0,29.88,WNW,290,6.0,-999.0,49,-99.99,,,-99.99,,2013-05-21 18:32:00,
2013-05-21 13:42:00,70.0,48.0,29.88,NW,320,3.0,-999.0,46,-99.99,,,-99.99,,2013-05-21 18:42:00,
2013-05-21 13:51:00,72.0,48.0,29.88,West,280,7.0,-999.0,43,-99.99,,,-99.99,,2013-05-21 18:51:00,
2013-05-21 14:01:00,72.0,48.0,29.88,West,280,7.0,-999.0,43,-99.99,,,-99.99,,2013-05-21 19:01:00,
2013-05-21 14:11:00,72.0,48.0,29.88,West,270,5.0,-999.0,43,-99.99,,,-99.99,,2013-05-21 19:11:00,
2013-05-21 14:21:00,70.0,48.0,29.88,West,260,6.0,-999.0,46,-99.99,,,-99.99,,2013-05-21 19:21:00,
2013-05-21 14:32:00,72.0,50.0,29.86,WNW,290,6.0,-999.0,46,-99.99,,,-99.99,,2013-05-21 19:32:00,
2013-05-21 14:41:00,72.0,48.0,29.86,NW,320,5.0,-999.0,43,-99.99,,,-99.99,,2013-05-21 19:41:00,
2013-05-21 14:52:00,70.0,48.0,29.82,NNW,330,8.0,-999.0,46,-99.99,,,-99.99,,2013-05-21 19:52:00,
2013-05-21 15:03:00,70.0,48.0,29.82,NNW,330,8.0,-999.0,46,-99.99,,,-99.99,,2013-05-21 20:03:00,
2013-05-21 15:11:00,70.0,52.0,29.80,NNW,340,7.0,-999.0,52,-99.99,,,-99.99,,2013-05-21 20:11:00,
2013-05-21 15:22:00,70.0,48.0,29.80,NNW,340,8.0,-999.0,46,-99.99,,,-99.99,,2013-05-21 20:22:00,
2013-05-21 15:32:00,70.0,48.0,29.81,NNW,330,7.0,-999.0,46,-99.99,,,-99.99,,2013-05-21 20:32:00,
2013-05-21 15:42:00,70.0,48.0,29.80,NW,310,5.0,-999.0,46,-99.99,,,-99.99,,2013-05-21 20:42:00,
2013-05-21 15:52:00,70.0,46.0,29.81,NW,310,3.0,-999.0,43,-99.99,,,-99.99,,2013-05-21 20:52:00,
2013-05-21 16:02:00,70.0,46.0,29.81,NW,310,3.0,-999.0,43,-99.99,,,-99.99,,2013-05-21 21:02:00,
2013-05-21 16:11:00,72.0,46.0,29.80,North,0,0.0,-999.0,40,-99.99,,,-99.99,,2013-05-21 21:11:00,
2013-05-21 16:21:00,72.0,46.0,29.79,North,0,0.0,-999.0,40,-99.99,,,-99.99,,2013-05-21 21:21:00,
2013-05-21 16:32:00,72.0,48.0,29.79,North,0,0.0,-999.0,43,-99.99,,,-99.99,,2013-05-21 21:32:00,
2013-05-21 16:43:00,72.0,46.0,29.79,NW,310,3.0,-999.0,40,-99.99,,,-99.99,,2013-05-21 21:43:00,
2013-05-21 16:53:00,72.0,46.0,29.78,NE,50,3.0,-999.0,40,-99.99,,,-99.99,,2013-05-21 21:53:00,
2013-05-21 17:02:00,72.0,46.0,29.78,NE,50,3.0,-999.0,40,-99.99,,,-99.99,,2013-05-21 22:02:00,
2013-05-21 17:12:00,73.0,48.0,29.77,NNW,330,3.0,-999.0,40,-99.99,,,-99.99,,2013-05-21 22:12:00,
2013-05-21 17:22:00,73.0,48.0,29.76,SW,220,3.0,-999.0,40,-99.99,,,-99.99,,2013-05-21 22:22:00,
2013-05-21 17:33:00,73.0,46.0,29.76,North,0,0.0,-999.0,38,-99.99,,,-99.99,,2013-05-21 22:33:00,
2013-05-21 17:42:00,72.0,46.0,29.76,North,0,0.0,-999.0,40,-99.99,,,-99.99,,2013-05-21 22:42:00,
2013-05-21 17:52:00,73.0,46.0,29.76,North,0,0.0,-999.0,38,-99.99,,,-99.99,,2013-05-21 22:52:00,
2013-05-21 18:02:00,73.0,46.0,29.76,North,0,0.0,-999.0,38,-99.99,,,-99.99,,2013-05-21 23:02:00,
2013-05-21 18:12:00,73.0,46.0,29.76,North,0,0.0,-999.0,38,-99.99,,,-99.99,,2013-05-21 23:12:00,
2013-05-21 18:22:00,73.0,46.0,29.76,North,0,0.0,-999.0,38,-99.99,,,-99.99,,2013-05-21 23:22:00,
2013-05-21 18:32:00,73.0,48.0,29.75,North,0,0.0,-999.0,40,-99.99,,,-99.99,,2013-05-21 23:32:00,
2013-05-21 18:42:00,73.0,46.0,29.75,South,170,5.0,-999.0,38,-99.99,,,-99.99,,2013-05-21 23:42:00,
2013-05-21 18:52:00,73.0,48.0,29.75,SE,140,3.0,-999.0,40,-99.99,,,-99.99,,2013-05-21 23:52:00,
2013-05-21 19:01:00,73.0,48.0,29.75,SE,140,3.0,-999.0,40,-99.99,,,-99.99,,2013-05-22 00:01:00,
2013-05-21 19:11:00,73.0,50.0,29.75,SW,220,3.0,-999.0,43,-99.99,,,-99.99,,2013-05-22 00:11:00,
2013-05-21 19:21:00,72.0,50.0,29.76,SW,220,3.0,-999.0,46,-99.99,,,-99.99,,2013-05-22 00:21:00,
2013-05-21 19:32:00,72.0,50.0,29.76,SSW,210,3.0,-999.0,46,-99.99,,,-99.99,,2013-05-22 00:32:00,
2013-05-21 19:41:00,72.0,50.0,29.76,SW,220,3.0,-999.0,46,-99.99,,,-99.99,,2013-05-22 00:41:00,
2013-05-21 19:51:00,72.0,52.0,29.76,WSW,240,3.0,-999.0,49,-99.99,,,-99.99,,2013-05-22 00:51:00,
2013-05-21 20:01:00,72.0,52.0,29.76,WSW,240,3.0,-999.0,49,-99.99,,,-99.99,,2013-05-22 01:01:00,
2013-05-21 20:11:00,70.0,52.0,29.76,WSW,240,5.0,-999.0,52,-99.99,,,-99.99,,2013-05-22 01:11:00,
2013-05-21 20:21:00,68.0,54.0,29.77,WSW,240,3.0,-999.0,59,-99.99,,,-99.99,,2013-05-22 01:21:00,
2013-05-21 20:32:00,68.0,54.0,29.77,WSW,240,3.0,-999.0,59,-99.99,,,-99.99,,2013-05-22 01:32:00,
2013-05-21 20:41:00,68.0,54.0,29.77,West,270,3.0,-999.0,59,-99.99,,,-99.99,,2013-05-22 01:41:00,
2013-05-21 20:52:00,64.0,54.0,29.78,West,270,6.0,-999.0,67,-99.99,,,-99.99,,2013-05-22 01:52:00,
2013-05-21 21:01:00,64.0,54.0,29.78,West,270,6.0,-999.0,67,-99.99,,,-99.99,,2013-05-22 02:01:00,
2013-05-21 21:11:00,63.0,54.0,29.79,West,260,5.0,-999.0,72,-99.99,,,-99.99,,2013-05-22 02:11:00,
2013-05-21 21:21:00,63.0,54.0,29.79,North,0,0.0,-999.0,72,-99.99,,,-99.99,,2013-05-22 02:21:00,
2013-05-21 21:32:00,63.0,54.0,29.79,West,270,6.0,-999.0,72,-99.99,,,-99.99,,2013-05-22 02:32:00,
2013-05-21 21:41:00,63.0,54.0,29.80,WNW,290,5.0,-999.0,72,-99.99,,,-99.99,,2013-05-22 02:41:00,
2013-05-21 21:51:00,61.0,52.0,29.80,WNW,300,5.0,-999.0,72,-99.99,,,-99.99,,2013-05-22 02:51:00,
2013-05-21 22:01:00,61.0,52.0,29.80,WNW,300,5.0,-999.0,72,-99.99,,,-99.99,,2013-05-22 03:01:00,
2013-05-21 22:11:00,61.0,52.0,29.81,WNW,300,5.0,-999.0,72,-99.99,,,-99.99,,2013-05-22 03:11:00,
2013-05-21 22:21:00,61.0,52.0,29.81,WNW,300,5.0,-999.0,72,-99.99,,,-99.99,,2013-05-22 03:21:00,
2013-05-21 22:33:00,61.0,52.0,29.82,WNW,300,5.0,-999.0,72,-99.99,,,-99.99,,2013-05-22 03:33:00,
2013-05-21 22:43:00,63.0,50.0,29.82,WNW,300,3.0,-999.0,63,-99.99,,,-99.99,,2013-05-22 03:43:00,
2013-05-21 22:53:00,63.0,50.0,29.82,North,0,0.0,-999.0,63,-99.99,,,-99.99,,2013-05-22 03:53:00,
2013-05-21 23:03:00,63.0,50.0,29.82,North,0,0.0,-999.0,63,-99.99,,,-99.99,,2013-05-22 04:03:00,
2013-05-21 23:13:00,61.0,50.0,29.83,West,270,3.0,-999.0,67,-99.99,,,-99.99,,2013-05-22 04:13:00,
2013-05-21 23:22:00,59.0,50.0,29.83,WNW,290,3.0,-999.0,72,-99.99,,,-99.99,,2013-05-22 04:22:00,
2013-05-21 23:33:00,59.0,50.0,29.83,North,0,0.0,-999.0,72,-99.99,,,-99.99,,2013-05-22 04:33:00,
2013-05-21 23:42:00,61.0,48.0,29.83,North,0,0.0,-999.0,63,-99.99,,,-99.99,,2013-05-22 04:42:00,
2013-05-21 23:52:00,57.0,50.0,29.83,West,280,3.0,-999.0,76,-99.99,,,-99.99,,2013-05-22 04:52:00,